Time;durP1;ratioP1;P1;durP2;ratioP2;P2;SDS_P1;SDS_P2;PMS_P1;PMS_P2;Temp;Humidity;BMP_temperature;BMP_pressure;BME280_temperature;BME280_humidity;BME280_pressure;Samples;Min_cycle;Max_cycle;Signal;HPM_P1;HPM_P2
2022/06/03 00:02:34;;;;;;;6.70;5.93;;;10.00;99.90;;;;;;4960604;28;90203;-35
2022/06/03 00:05:38;;;;;;;5.95;5.13;;;9.90;99.90;;;;;;4960828;28;90259;-36
2022/06/03 00:08:30;;;;;;;5.68;5.18;;;9.80;99.90;;;;;;4961336;28;89534;-34
2022/06/03 00:11:30;;;;;;;7.00;5.28;;;9.80;99.90;;;;;;4961114;28;88298;-34
2022/06/03 00:14:09;;;;;;;6.78;5.65;;;9.70;99.90;;;;;;4960810;28;90102;-37
2022/06/03 00:16:47;;;;;;;7.82;5.75;;;9.70;99.90;;;;;;4960096;28;89742;-38
2022/06/03 00:19:27;;;;;;;7.85;6.30;;;9.70;99.90;;;;;;4960566;28;90024;-34
2022/06/03 00:22:02;;;;;;;6.80;6.10;;;9.60;99.90;;;;;;4960952;28;89553;-35
2022/06/03 00:24:51;;;;;;;9.77;7.05;;;9.60;99.90;;;;;;4960969;28;90077;-33
2022/06/03 00:27:40;;;;;;;10.48;5.63;;;9.60;99.90;;;;;;4960120;28;90730;-38
2022/06/03 00:30:34;;;;;;;9.25;6.78;;;9.60;99.90;;;;;;4950503;28;90829;-34
2022/06/03 00:33:21;;;;;;;7.75;5.85;;;9.50;99.90;;;;;;4929496;28;89329;-36
2022/06/03 00:36:13;;;;;;;6.85;6.15;;;9.50;99.90;;;;;;4960215;28;89243;-35
2022/06/03 00:38:53;;;;;;;9.13;7.78;;;9.50;99.90;;;;;;4949133;28;89141;-33
2022/06/03 00:41:37;;;;;;;13.75;6.57;;;9.50;99.90;;;;;;4960579;28;89398;-33
2022/06/03 00:44:10;;;;;;;9.30;6.47;;;9.60;99.90;;;;;;4960618;28;89581;-34
2022/06/03 00:46:57;;;;;;;10.82;6.32;;;9.60;99.90;;;;;;4960124;28;90820;-37
2022/06/03 00:49:44;;;;;;;8.02;7.32;;;9.50;99.90;;;;;;4960595;28;89513;-34
2022/06/03 00:52:34;;;;;;;9.73;5.68;;;9.60;99.90;;;;;;4960260;28;90340;-33
2022/06/03 00:55:34;;;;;;;8.10;6.55;;;9.60;99.90;;;;;;5012679;22;90714;-34
2022/06/03 00:58:14;;;;;;;14.07;7.43;;;9.60;99.90;;;;;;4960116;28;90251;-35
2022/06/03 01:00:58;;;;;;;11.98;7.00;;;9.60;99.90;;;;;;4959551;28;89066;-33
2022/06/03 01:03:45;;;;;;;6.32;5.82;;;9.70;99.90;;;;;;4960339;28;89385;-34
2022/06/03 01:06:21;;;;;;;6.85;6.15;;;9.60;99.90;;;;;;4949591;28;89682;-35
2022/06/03 01:09:17;;;;;;;7.25;6.03;;;9.60;99.90;;;;;;4940343;28;90724;-34
2022/06/03 01:12:06;;;;;;;8.70;6.90;;;9.50;99.90;;;;;;4940258;28;90838;-34
2022/06/03 01:14:53;;;;;;;7.70;6.53;;;9.40;99.90;;;;;;4940640;28;88182;-34
2022/06/03 01:17:40;;;;;;;6.97;6.05;;;9.40;99.90;;;;;;4940570;28;89230;-34
2022/06/03 01:20:27;;;;;;;7.55;6.85;;;9.40;99.90;;;;;;4940526;28;90326;-33
2022/06/03 01:23:23;;;;;;;7.90;6.27;;;9.40;99.90;;;;;;4940164;28;92037;-33
2022/06/03 01:26:11;;;;;;;10.13;7.53;;;9.40;99.90;;;;;;4940801;28;91147;-32
2022/06/03 01:29:01;;;;;;;11.73;7.70;;;9.40;99.90;;;;;;4940411;28;87991;-34
2022/06/03 01:31:57;;;;;;;8.25;6.72;;;9.40;99.90;;;;;;4940636;28;90152;-35
2022/06/03 01:34:31;;;;;;;13.20;7.07;;;9.40;99.90;;;;;;4938943;28;89666;-33
2022/06/03 01:37:10;;;;;;;9.25;7.50;;;9.30;99.90;;;;;;4938763;28;89555;-34
2022/06/03 01:40:00;;;;;;;9.20;8.20;;;9.20;99.90;;;;;;4940127;28;88763;-36
2022/06/03 01:42:49;;;;;;;10.35;7.85;;;9.20;99.90;;;;;;4928415;28;90199;-33
2022/06/03 01:45:51;;;;;;;7.35;6.57;;;9.20;99.90;;;;;;4939487;28;90048;-34
2022/06/03 01:48:30;;;;;;;8.45;6.80;;;9.10;99.90;;;;;;4940442;28;89257;-34
2022/06/03 01:50:55;;;;;;;;;;;9.10;99.90;;;;;;4940498;28;88816;-36
2022/06/03 01:53:30;;;;;;;8.43;7.13;;;9.10;99.90;;;;;;4940985;28;90241;-33
2022/06/03 01:56:11;;;;;;;12.05;8.82;;;9.10;99.90;;;;;;4939875;28;89490;-35
2022/06/03 01:59:14;;;;;;;9.73;8.82;;;9.10;99.90;;;;;;4939993;28;89428;-34
2022/06/03 02:02:29;;;;;;;15.75;8.30;;;9.10;99.90;;;;;;4940439;28;88775;-33
2022/06/03 02:05:00;;;;;;;12.90;7.38;;;9.10;99.90;;;;;;4939902;28;89708;-33
2022/06/03 02:07:50;;;;;;;12.35;7.95;;;9.10;99.90;;;;;;4940057;28;89586;-32
2022/06/03 02:10:45;;;;;;;9.00;8.13;;;9.10;99.90;;;;;;4939871;28;89522;-34
2022/06/03 02:13:43;;;;;;;10.25;8.90;;;9.10;99.90;;;;;;4940153;28;88731;-33
2022/06/03 02:16:14;;;;;;;;;;;9.10;99.90;;;;;;4940153;28;90304;-36
2022/06/03 02:18:48;;;;;;;8.85;8.05;;;9.00;99.90;;;;;;4940868;28;91037;-36
2022/06/03 02:21:40;;;;;;;18.48;10.05;;;9.00;99.90;;;;;;4938525;28;90254;-33
2022/06/03 02:25:03;;;;;;;10.85;8.38;;;9.00;99.90;;;;;;4939325;28;88024;-36
2022/06/03 02:28:11;;;;;;;10.32;9.20;;;8.90;99.90;;;;;;4936503;28;90391;-34
2022/06/03 02:31:08;;;;;;;10.93;8.63;;;8.90;99.90;;;;;;4936316;28;89721;-35
2022/06/03 02:33:52;;;;;;;11.15;9.30;;;8.90;99.90;;;;;;4927118;28;89060;-38
2022/06/03 02:36:57;;;;;;;11.65;9.65;;;8.80;99.90;;;;;;4940031;28;90400;-33
2022/06/03 02:39:33;;;;;;;15.50;10.27;;;8.80;99.90;;;;;;4940171;28;90413;-34
2022/06/03 02:42:10;;;;;;;13.95;9.57;;;8.80;99.90;;;;;;4938968;28;90854;-34
2022/06/03 02:45:21;;;;;;;13.13;10.27;;;8.80;99.90;;;;;;4938547;28;89523;-35
2022/06/03 02:47:51;;;;;;;11.52;10.02;;;8.80;99.90;;;;;;4917604;28;90378;-33
2022/06/03 02:50:40;;;;;;;10.32;9.20;;;8.80;99.90;;;;;;4941450;28;89904;-37
2022/06/03 02:53:20;;;;;;;11.63;10.43;;;8.90;99.90;;;;;;4943354;28;89949;-33
2022/06/03 02:56:23;;;;;;;12.77;10.27;;;8.90;99.90;;;;;;4941549;28;90596;-36
2022/06/03 02:59:39;;;;;;;11.50;9.60;;;8.90;99.90;;;;;;4941709;28;89532;-33
2022/06/03 03:02:20;;;;;;;11.13;9.55;;;8.80;99.90;;;;;;4939563;28;90307;-36
2022/06/03 03:05:16;;;;;;;14.82;10.15;;;8.80;99.90;;;;;;4942504;28;88763;-34
2022/06/03 03:07:54;;;;;;;12.75;9.68;;;8.70;99.90;;;;;;4941627;28;89945;-33
2022/06/03 03:10:46;;;;;;;11.17;10.10;;;8.70;99.90;;;;;;4941466;28;89300;-33
2022/06/03 03:13:33;;;;;;;10.60;9.30;;;8.70;99.90;;;;;;4942095;28;90001;-32
2022/06/03 03:16:18;;;;;;;15.10;9.60;;;8.60;99.90;;;;;;4942002;28;91075;-34
2022/06/03 03:18:52;;;;;;;12.85;9.35;;;8.50;99.90;;;;;;4941823;28;90535;-37
2022/06/03 03:21:27;;;;;;;15.52;10.45;;;8.60;99.90;;;;;;4943214;28;90030;-33
2022/06/03 03:23:52;;;;;;;11.98;9.80;;;8.60;99.90;;;;;;4941146;28;90140;-35
2022/06/03 03:26:35;;;;;;;11.80;10.57;;;8.60;99.90;;;;;;4942406;28;89544;-37
2022/06/03 03:29:22;;;;;;;12.10;10.70;;;8.60;99.90;;;;;;4941544;28;89426;-36
2022/06/03 03:32:29;;;;;;;17.10;12.07;;;8.50;99.90;;;;;;4941549;28;89701;-36
2022/06/03 03:35:19;;;;;;;11.65;10.50;;;8.50;99.90;;;;;;4925901;28;90547;-38
2022/06/03 03:37:50;;;;;;;12.15;10.48;;;8.50;99.90;;;;;;4940973;28;90204;-35
2022/06/03 03:40:35;;;;;;;11.27;9.85;;;8.40;99.90;;;;;;4941366;28;89620;-34
2022/06/03 03:43:33;;;;;;;14.27;9.32;;;8.40;99.90;;;;;;4942152;28;90627;-37
2022/06/03 03:45:58;;;;;;;11.80;9.98;;;8.30;99.90;;;;;;4940508;28;89112;-38
2022/06/03 03:49:01;;;;;;;13.27;10.18;;;8.40;99.90;;;;;;4955921;28;88421;-35
2022/06/03 03:52:01;;;;;;;14.73;10.02;;;8.40;99.90;;;;;;4941014;28;89503;-35
2022/06/03 03:54:33;;;;;;;14.98;11.02;;;8.50;99.90;;;;;;4940885;28;89950;-36
2022/06/03 03:57:07;;;;;;;12.60;11.25;;;8.60;99.90;;;;;;4940758;28;90186;-33
2022/06/03 04:00:02;;;;;;;12.50;11.10;;;8.60;99.90;;;;;;4940207;28;88897;-36
2022/06/03 04:02:58;;;;;;;11.25;10.18;;;8.70;99.90;;;;;;4941592;28;89758;-32
2022/06/03 04:05:48;;;;;;;13.48;11.10;;;8.80;99.90;;;;;;4941313;28;88297;-33
2022/06/03 04:08:48;;;;;;;12.43;11.20;;;8.90;99.90;;;;;;4941207;28;90789;-33
2022/06/03 04:11:46;;;;;;;12.48;11.18;;;8.90;99.90;;;;;;4940813;28;90634;-33
2022/06/03 04:14:48;;;;;;;15.27;12.05;;;9.00;99.90;;;;;;4940589;28;89865;-35
2022/06/03 04:17:51;;;;;;;11.93;10.70;;;9.00;99.90;;;;;;4941188;28;89027;-35
2022/06/03 04:20:50;;;;;;;12.32;10.80;;;9.10;99.90;;;;;;4940596;28;90253;-34
2022/06/03 04:23:38;;;;;;;18.23;12.00;;;9.20;99.90;;;;;;4940305;28;90214;-34
2022/06/03 04:26:13;;;;;;;16.30;11.27;;;9.30;99.90;;;;;;4940445;28;89089;-33
2022/06/03 04:28:51;;;;;;;16.60;11.60;;;9.40;99.90;;;;;;4940713;28;89378;-33
2022/06/03 04:31:35;;;;;;;13.45;11.18;;;9.60;99.90;;;;;;4940979;28;90114;-32
2022/06/03 04:34:07;;;;;;;17.33;11.70;;;9.80;99.90;;;;;;4940108;28;91137;-36
2022/06/03 04:37:03;;;;;;;13.25;11.23;;;10.00;99.90;;;;;;4940487;28;89962;-37
2022/06/03 04:39:35;;;;;;;12.20;10.85;;;10.20;99.90;;;;;;4940341;28;89359;-37
2022/06/03 04:42:25;;;;;;;13.80;11.90;;;10.30;99.90;;;;;;4940850;28;90021;-33
2022/06/03 04:45:22;;;;;;;11.70;10.50;;;10.50;99.90;;;;;;4940334;28;89613;-35
2022/06/03 04:48:06;;;;;;;19.00;10.70;;;10.60;99.90;;;;;;4940703;28;89517;-34
2022/06/03 04:51:10;;;;;;;16.23;12.95;;;10.70;99.90;;;;;;4940256;28;87933;-33
2022/06/03 04:53:55;;;;;;;12.20;10.93;;;10.90;99.90;;;;;;4923157;28;90081;-34
2022/06/03 04:56:48;;;;;;;12.07;10.63;;;11.00;99.90;;;;;;4940470;28;90101;-33
2022/06/03 04:59:51;;;;;;;15.27;10.75;;;11.10;99.90;;;;;;4940022;28;89302;-34
2022/06/03 05:02:28;;;;;;;14.48;10.20;;;11.20;99.90;;;;;;4940309;28;88730;-34
2022/06/03 05:05:27;;;;;;;15.23;12.45;;;11.30;99.90;;;;;;4939457;28;91129;-34
2022/06/03 05:08:20;;;;;;;18.02;11.98;;;11.50;99.90;;;;;;4939225;28;90537;-35
2022/06/03 05:10:54;;;;;;;13.80;12.50;;;11.60;99.90;;;;;;4939501;28;90982;-32
2022/06/03 05:13:23;;;;;;;16.15;12.40;;;11.80;99.90;;;;;;4940010;28;89447;-34
2022/06/03 05:16:13;;;;;;;16.30;12.07;;;11.90;99.90;;;;;;4939355;28;90238;-38
2022/06/03 05:19:08;;;;;;;16.05;11.35;;;12.00;99.90;;;;;;4940317;28;89476;-32
2022/06/03 05:22:03;;;;;;;13.48;12.07;;;12.20;99.90;;;;;;4938920;28;90332;-35
2022/06/03 05:24:49;;;;;;;15.10;13.38;;;12.40;99.90;;;;;;4939278;28;89265;-37
2022/06/03 05:27:26;;;;;;;13.95;12.50;;;12.50;99.90;;;;;;4940015;28;89917;-34
2022/06/03 05:30:25;;;;;;;16.50;12.57;;;12.60;99.90;;;;;;4939728;28;89870;-34
2022/06/03 05:33:39;;;;;;;13.35;11.63;;;12.70;99.90;;;;;;4939196;28;89515;-33
2022/06/03 05:36:28;;;;;;;15.20;11.95;;;12.80;99.90;;;;;;4916735;28;89470;-36
2022/06/03 05:39:12;;;;;;;14.48;12.25;;;12.90;99.90;;;;;;4939228;28;90214;-33
2022/06/03 05:45:20;;;;;;;14.48;12.93;;;13.20;99.90;;;;;;4939085;28;90817;-37
2022/06/03 05:48:01;;;;;;;13.40;11.55;;;13.30;99.90;;;;;;4939467;28;89383;-35
2022/06/03 05:50:56;;;;;;;13.18;11.73;;;13.60;99.90;;;;;;4939555;28;90583;-35
2022/06/03 05:53:39;;;;;;;15.55;10.73;;;13.60;99.90;;;;;;4939278;28;89724;-36
2022/06/03 05:56:40;;;;;;;21.08;11.30;;;13.70;99.90;;;;;;4940192;28;89108;-34
2022/06/03 05:59:21;;;;;;;11.52;10.32;;;13.80;99.90;;;;;;4939150;28;89132;-34
2022/06/03 06:02:14;;;;;;;12.15;10.90;;;14.00;99.90;;;;;;4938770;28;90995;-36
2022/06/03 06:05:05;;;;;;;16.60;12.18;;;14.10;99.90;;;;;;4938103;28;90810;-35
2022/06/03 06:07:59;;;;;;;12.38;10.70;;;14.40;99.90;;;;;;4936552;28;114459;-34
2022/06/03 06:10:56;;;;;;;12.25;10.75;;;14.50;99.90;;;;;;4939464;28;88303;-35
2022/06/03 06:14:01;;;;;;;12.07;9.60;;;14.40;99.90;;;;;;4940211;28;89894;-33
2022/06/03 06:16:42;;;;;;;15.40;11.07;;;14.40;99.90;;;;;;4939047;28;89193;-36
2022/06/03 06:19:39;;;;;;;10.07;9.18;;;14.60;99.90;;;;;;4939432;28;89628;-35
2022/06/03 06:22:09;;;;;;;13.57;9.45;;;14.90;99.90;;;;;;4940802;28;90095;-34
2022/06/03 06:24:34;;;;;;;10.02;9.00;;;15.00;99.90;;;;;;4943692;28;90343;-36
2022/06/03 06:27:34;;;;;;;10.20;9.05;;;15.20;99.90;;;;;;4942706;28;88545;-33
2022/06/03 06:30:31;;;;;;;10.98;8.15;;;15.20;99.90;;;;;;4943294;28;88591;-34
2022/06/03 06:33:24;;;;;;;11.23;8.90;;;15.40;99.90;;;;;;4942747;28;89717;-35
2022/06/03 06:36:17;;;;;;;13.05;10.02;;;15.40;99.90;;;;;;4943167;28;90158;-34
2022/06/03 06:38:54;;;;;;;12.13;8.70;;;15.60;99.90;;;;;;4941850;28;89735;-35
2022/06/03 06:42:01;;;;;;;12.32;9.18;;;15.90;99.90;;;;;;4942124;28;89930;-35
2022/06/03 06:45:01;;;;;;;11.13;8.52;;;15.80;99.90;;;;;;4940448;28;88146;-33
2022/06/03 06:47:33;;;;;;;8.90;8.00;;;15.90;99.90;;;;;;4943290;28;90117;-34
2022/06/03 06:50:11;;;;;;;10.13;8.25;;;16.20;99.90;;;;;;4939940;28;89563;-33
2022/06/03 06:52:59;;;;;;;10.57;9.52;;;16.40;99.90;;;;;;4943121;28;89544;-37
2022/06/03 06:55:54;;;;;;;13.48;7.80;;;16.50;99.90;;;;;;4942408;28;89294;-38
2022/06/03 06:58:32;;;;;;;14.77;7.50;;;16.40;99.90;;;;;;4953171;28;89974;-33
2022/06/03 07:01:00;;;;;;;;;;;16.60;99.90;;;;;;4942051;28;91236;-35
2022/06/03 07:04:04;;;;;;;11.85;7.07;;;16.60;99.90;;;;;;4943541;28;90090;-35
2022/06/03 07:06:51;;;;;;;5.90;5.10;;;16.50;99.90;;;;;;4919956;28;89728;-36
2022/06/03 07:09:26;;;;;;;16.37;7.47;;;16.70;99.90;;;;;;4941450;28;91763;-35
2022/06/03 07:12:09;;;;;;;12.75;8.27;;;17.00;99.90;;;;;;4942158;28;89798;-34
2022/06/03 07:14:56;;;;;;;11.00;6.93;;;17.10;99.90;;;;;;4942532;28;89516;-36
2022/06/03 07:20:57;;;;;;;7.13;6.03;;;17.30;99.90;;;;;;4936378;28;90361;-34
2022/06/03 07:23:54;;;;;;;10.35;6.63;;;17.30;99.90;;;;;;4930902;28;89476;-33
2022/06/03 07:26:38;;;;;;;10.60;7.25;;;17.10;99.90;;;;;;4942337;28;90069;-34
2022/06/03 07:29:25;;;;;;;8.05;6.35;;;17.30;99.90;;;;;;4941922;28;89039;-34
2022/06/03 07:32:09;;;;;;;10.23;7.07;;;17.40;99.90;;;;;;4941568;28;90654;-35
2022/06/03 07:34:50;;;;;;;11.18;6.53;;;17.40;99.90;;;;;;4941969;28;89874;-34
2022/06/03 07:37:27;;;;;;;8.00;7.20;;;17.60;99.90;;;;;;4941917;28;89579;-36
2022/06/03 07:40:06;;;;;;;10.05;7.43;;;17.80;99.90;;;;;;4942003;28;89343;-37
2022/06/03 07:42:47;;;;;;;7.18;6.10;;;18.00;99.90;;;;;;4940544;28;90131;-35
2022/06/03 07:45:36;;;;;;;9.13;7.32;;;18.20;99.90;;;;;;4949852;28;89803;-39
2022/06/03 07:48:06;;;;;;;7.93;7.15;;;18.20;99.90;;;;;;4955276;28;90117;-35
2022/06/03 07:50:36;;;;;;;8.15;6.68;;;18.10;99.90;;;;;;4959725;28;89805;-34
2022/06/03 07:53:11;;;;;;;7.15;6.30;;;18.00;99.90;;;;;;4958935;28;89994;-36
2022/06/03 07:55:37;;;;;;;7.90;7.22;;;18.20;99.90;;;;;;4958736;28;90662;-37
2022/06/03 07:58:08;;;;;;;7.20;6.50;;;18.30;99.90;;;;;;4959635;28;91076;-36
2022/06/03 08:00:37;;;;;;;7.57;6.80;;;18.40;99.90;;;;;;4959664;28;88537;-38
2022/06/03 08:03:05;;;;;;;;;;;18.20;99.90;;;;;;4959533;28;90091;-38
2022/06/03 08:05:32;;;;;;;9.00;8.07;;;18.50;99.90;;;;;;4960136;28;89745;-35
2022/06/03 08:10:58;;;;;;;10.15;6.55;;;18.80;99.90;;;;;;4959685;28;88236;-35
2022/06/03 08:13:39;;;;;;;7.82;6.85;;;18.80;99.90;;;;;;4959067;28;90574;-35
2022/06/03 08:16:18;;;;;;;6.22;5.72;;;19.20;99.90;;;;;;4940860;28;89498;-36
2022/06/03 08:18:44;;;;;;;6.75;6.07;;;19.00;99.90;;;;;;4938968;28;88933;-35
2022/06/03 08:21:14;;;;;;;7.15;6.35;;;19.10;99.90;;;;;;4939163;28;90115;-39
2022/06/03 08:23:40;;;;;;;7.10;6.47;;;19.00;99.90;;;;;;4939627;28;90059;-35
2022/06/03 08:26:17;;;;;;;6.22;5.72;;;19.10;99.90;;;;;;4939640;28;89947;-37
2022/06/03 08:28:52;;;;;;;7.70;7.00;;;19.40;99.90;;;;;;4938657;28;89220;-38
2022/06/03 08:31:23;;;;;;;6.85;6.15;;;19.20;99.90;;;;;;4939551;28;90402;-38
2022/06/03 08:33:58;;;;;;;6.95;6.32;;;19.30;99.90;;;;;;4940800;28;90342;-38
2022/06/03 08:36:27;;;;;;;6.90;6.30;;;19.50;99.90;;;;;;4941290;28;89612;-34
2022/06/03 08:38:57;;;;;;;8.23;7.43;;;19.30;99.90;;;;;;4941265;28;90539;-36
2022/06/03 08:41:44;;;;;;;7.40;6.32;;;19.50;99.90;;;;;;4940857;28;89625;-35
2022/06/03 08:44:47;;;;;;;8.75;7.85;;;19.60;99.90;;;;;;4940127;28;89222;-37
2022/06/03 08:47:50;;;;;;;9.57;7.47;;;20.00;99.90;;;;;;4940313;28;90489;-34
2022/06/03 08:50:38;;;;;;;8.23;6.68;;;19.60;99.90;;;;;;4940873;28;90589;-36
2022/06/03 08:53:09;;;;;;;7.95;6.80;;;19.60;99.90;;;;;;4941154;28;88929;-38
2022/06/03 08:55:51;;;;;;;6.95;6.28;;;19.60;99.90;;;;;;4940196;28;90261;-35
2022/06/03 08:58:30;;;;;;;6.38;5.78;;;19.70;99.90;;;;;;4955718;28;89883;-37
2022/06/03 09:01:09;;;;;;;6.75;6.18;;;20.10;99.90;;;;;;4940811;28;89632;-38
2022/06/03 09:03:47;;;;;;;7.57;6.82;;;20.00;99.90;;;;;;4941122;28;88696;-38
2022/06/03 09:06:33;;;;;;;7.03;6.32;;;19.70;99.90;;;;;;4941508;28;90102;-37
2022/06/03 09:09:24;;;;;;;7.85;6.97;;;19.70;99.90;;;;;;4940769;28;88849;-36
2022/06/03 09:12:25;;;;;;;13.32;6.68;;;19.80;99.90;;;;;;4940296;28;90231;-35
2022/06/03 09:14:52;;;;;;;7.82;7.03;;;20.00;99.90;;;;;;4938347;28;89578;-34
2022/06/03 09:17:24;;;;;;;7.53;6.75;;;20.00;99.90;;;;;;4941039;28;90856;-37
2022/06/03 09:19:53;;;;;;;7.40;6.65;;;20.10;99.90;;;;;;4940014;28;89591;-34
2022/06/03 09:22:25;;;;;;;8.10;5.53;;;20.30;99.90;;;;;;4940462;28;88975;-36
2022/06/03 09:24:54;;;;;;;7.00;5.88;;;20.60;99.90;;;;;;4940127;28;88439;-36
2022/06/03 09:27:21;;;;;;;6.07;5.57;;;20.40;98.70;;;;;;4940774;28;90060;-35
2022/06/03 09:29:51;;;;;;;8.00;5.33;;;20.70;97.60;;;;;;4940250;28;89933;-36
2022/06/03 09:32:19;;;;;;;7.20;5.22;;;20.80;99.90;;;;;;4940139;28;89299;-37
2022/06/03 09:34:51;;;;;;;5.68;5.10;;;20.70;89.00;;;;;;4940096;28;89512;-38
2022/06/03 09:37:31;;;;;;;7.93;5.43;;;20.80;99.90;;;;;;4940177;28;88810;-35
2022/06/03 09:39:58;;;;;;;6.55;4.88;;;20.50;98.10;;;;;;4939943;28;90367;-37
2022/06/03 09:42:26;;;;;;;5.60;5.10;;;20.70;97.20;;;;;;4940499;28;90427;-39
2022/06/03 09:44:52;;;;;;;6.57;5.83;;;20.70;93.10;;;;;;4940700;28;89345;-37
2022/06/03 09:47:20;;;;;;;5.70;5.20;;;20.70;94.50;;;;;;4940091;28;89984;-36
2022/06/03 09:49:50;;;;;;;6.63;6.05;;;20.70;90.40;;;;;;4939965;28;88982;-35
2022/06/03 09:52:19;;;;;;;8.68;5.28;;;20.50;95.70;;;;;;4940286;28;89805;-35
2022/06/03 09:54:47;;;;;;;6.15;5.40;;;20.80;92.50;;;;;;4938973;28;90181;-35
2022/06/03 09:57:31;;;;;;;4.80;4.43;;;20.90;93.40;;;;;;4939088;28;90337;-39
2022/06/03 10:00:08;;;;;;;7.43;4.88;;;20.90;93.40;;;;;;4940179;28;90222;-36
2022/06/03 10:02:35;;;;;;;10.25;4.63;;;21.10;83.30;;;;;;4940097;28;89263;-37
2022/06/03 10:05:03;;;;;;;5.47;4.95;;;20.70;91.30;;;;;;4938428;28;90133;-35
2022/06/03 10:07:29;;;;;;;5.53;5.03;;;20.80;93.90;;;;;;4940057;28;90649;-38
2022/06/03 10:12:52;;;;;;;4.63;4.18;;;20.80;85.20;;;;;;4939939;28;89914;-35
2022/06/03 10:15:39;;;;;;;4.65;4.25;;;20.70;82.10;;;;;;4939699;28;89899;-34
2022/06/03 10:18:13;;;;;;;4.60;4.18;;;20.70;90.60;;;;;;4939925;28;89922;-36
2022/06/03 10:20:38;;;;;;;6.93;3.63;;;20.90;92.70;;;;;;4939349;28;89672;-35
2022/06/03 10:23:08;;;;;;;6.45;5.22;;;21.10;94.00;;;;;;4939632;28;88009;-35
2022/06/03 10:25:39;;;;;;;7.70;5.65;;;21.00;98.80;;;;;;4943277;28;89569;-36
2022/06/03 10:28:07;;;;;;;4.68;4.20;;;21.30;99.90;;;;;;4943503;28;90123;-34
2022/06/03 10:30:37;;;;;;;6.65;4.40;;;21.10;76.60;;;;;;4946045;28;90136;-38
2022/06/03 10:33:06;;;;;;;8.02;5.78;;;21.00;93.80;;;;;;4937234;28;90048;-35
2022/06/03 10:35:38;;;;;;;6.57;5.85;;;21.10;98.00;;;;;;4937365;28;88833;-38
2022/06/03 10:38:04;;;;;;;5.05;4.65;;;21.10;77.70;;;;;;4936985;28;90585;-35
2022/06/03 10:40:32;;;;;;;5.90;4.82;;;21.10;79.00;;;;;;4937878;28;89777;-38
2022/06/03 10:43:00;;;;;;;5.00;4.07;;;21.10;96.80;;;;;;4937317;28;90278;-37
2022/06/03 10:45:31;;;;;;;4.82;4.50;;;21.10;95.80;;;;;;4937134;28;89016;-35
2022/06/03 10:47:57;;;;;;;5.55;4.97;;;21.10;90.30;;;;;;4937296;28;89157;-39
2022/06/03 10:50:30;;;;;;;4.60;4.22;;;21.10;82.70;;;;;;4937051;28;89550;-38
2022/06/03 11:02:14;;;;;;;6.35;4.82;;;20.70;70.70;;;;;;4953139;28;89765;-37
2022/06/03 11:04:40;;;;;;;5.57;5.18;;;20.80;78.00;;;;;;4956778;28;89721;-37
2022/06/03 11:07:30;;;;;;;5.90;5.10;;;20.80;82.20;;;;;;4956646;28;88665;-36
2022/06/03 11:09:58;;;;;;;4.47;3.88;;;20.80;83.50;;;;;;4959191;28;90302;-35
2022/06/03 11:12:26;;;;;;;6.97;3.45;;;21.10;77.40;;;;;;4960006;28;90425;-35
2022/06/03 11:14:51;;;;;;;;;;;20.90;77.00;;;;;;4952550;28;90139;-34
2022/06/03 11:17:17;;;;;;;5.45;4.95;;;21.10;79.90;;;;;;4942349;28;87586;-39
2022/06/03 11:19:48;;;;;;;4.57;4.22;;;20.90;69.50;;;;;;4940459;28;90303;-36
2022/06/03 11:22:34;;;;;;;4.53;4.13;;;20.80;75.20;;;;;;4955182;28;90675;-36
2022/06/03 11:25:03;;;;;;;8.32;4.72;;;20.80;68.60;;;;;;4940309;28;89978;-36
2022/06/03 11:27:53;;;;;;;4.97;4.50;;;21.10;82.00;;;;;;4940533;28;90483;-37
2022/06/03 11:30:31;;;;;;;6.40;3.65;;;21.00;62.40;;;;;;4940098;28;90714;-36
2022/06/03 11:33:02;;;;;;;6.10;4.73;;;21.30;74.90;;;;;;4939201;28;89970;-35
2022/06/03 11:35:38;;;;;;;4.72;4.35;;;21.30;86.30;;;;;;4940688;28;89533;-36
2022/06/03 11:38:06;;;;;;;4.85;4.55;;;21.10;67.80;;;;;;4947310;28;88682;-34
2022/06/03 11:40:37;;;;;;;;;;;21.20;74.40;;;;;;4959316;28;89877;-37
2022/06/03 11:43:22;;;;;;;4.57;4.18;;;21.20;67.10;;;;;;4947221;28;88640;-35
2022/06/03 11:46:23;;;;;;;4.93;4.35;;;21.10;69.60;;;;;;4959054;28;89303;-37
2022/06/03 11:48:51;;;;;;;4.05;3.75;;;21.40;73.80;;;;;;4957885;28;89323;-37
2022/06/03 11:51:17;;;;;;;5.22;4.53;;;21.00;66.00;;;;;;4958630;28;89922;-39
2022/06/03 11:53:49;;;;;;;3.80;3.42;;;21.00;66.00;;;;;;4958916;28;88754;-37
2022/06/03 11:56:25;;;;;;;6.75;4.30;;;21.20;75.80;;;;;;4959038;28;89685;-39
2022/06/03 11:58:54;;;;;;;4.05;3.75;;;21.30;68.20;;;;;;4959503;28;87643;-35
2022/06/03 12:01:43;;;;;;;4.55;4.10;;;21.30;71.80;;;;;;4958835;28;90176;-37
2022/06/03 12:04:18;;;;;;;4.47;3.67;;;21.20;64.10;;;;;;4959380;28;89596;-35
2022/06/03 12:06:46;;;;;;;5.38;4.43;;;21.40;76.20;;;;;;4958592;28;89514;-35
2022/06/03 12:09:40;;;;;;;5.38;4.95;;;21.60;66.70;;;;;;4960118;28;89983;-35
2022/06/03 12:15:52;;;;;;;6.22;3.92;;;21.30;68.20;;;;;;4948452;28;90852;-38
2022/06/03 12:18:32;;;;;;;5.22;4.72;;;21.50;64.70;;;;;;4940542;28;90465;-38
2022/06/03 12:20:58;;;;;;;4.93;3.60;;;21.40;65.30;;;;;;4938980;28;88275;-36
2022/06/03 12:23:23;;;;;;;4.63;4.18;;;21.50;74.40;;;;;;4938681;28;89982;-36
2022/06/03 12:25:51;;;;;;;5.32;4.28;;;21.40;75.10;;;;;;4951351;28;89293;-39
2022/06/03 12:28:32;;;;;;;5.30;4.40;;;21.40;77.50;;;;;;4958379;28;89052;-35
2022/06/03 12:31:02;;;;;;;5.85;4.40;;;21.40;75.30;;;;;;4957468;28;89192;-35
2022/06/03 12:34:04;;;;;;;4.90;4.50;;;21.30;69.70;;;;;;4959062;28;90759;-37
2022/06/03 12:36:40;;;;;;;4.80;4.50;;;21.10;64.30;;;;;;4956139;28;89846;-36
2022/06/03 12:39:19;;;;;;;5.10;4.70;;;21.10;66.20;;;;;;4959234;28;89628;-39
2022/06/03 12:41:45;;;;;;;6.03;5.18;;;21.20;74.00;;;;;;4958319;28;89454;-35
2022/06/03 12:44:48;;;;;;;5.03;4.63;;;21.40;66.30;;;;;;4959180;28;90416;-37
2022/06/03 12:47:26;;;;;;;4.68;4.38;;;21.10;76.60;;;;;;4956127;28;89227;-37
2022/06/03 12:50:04;;;;;;;6.32;4.03;;;21.40;67.90;;;;;;4958071;28;89900;-34
2022/06/03 12:52:29;;;;;;;5.45;4.55;;;21.20;63.70;;;;;;4958583;28;87604;-39
2022/06/03 12:54:56;;;;;;;4.78;4.38;;;21.30;76.00;;;;;;4988792;22;91563;-35
2022/06/03 12:57:32;;;;;;;6.03;4.13;;;21.50;68.30;;;;;;4978778;28;89896;-38
2022/06/03 13:00:02;;;;;;;5.80;4.97;;;21.40;68.00;;;;;;4978698;28;89284;-38
2022/06/03 13:02:32;;;;;;;10.00;5.47;;;21.40;69.70;;;;;;4976811;28;89840;-38
2022/06/03 13:04:58;;;;;;;4.90;4.38;;;21.30;63.50;;;;;;4977824;28;89734;-37
2022/06/03 13:07:27;;;;;;;4.35;4.05;;;21.30;71.80;;;;;;4977161;28;90019;-37
2022/06/03 13:10:23;;;;;;;5.20;4.70;;;21.50;71.90;;;;;;4977594;28;90210;-40
2022/06/03 13:12:51;;;;;;;5.95;3.80;;;21.50;66.70;;;;;;4977627;28;89778;-34
2022/06/03 13:15:16;;;;;;;;;;;21.50;69.60;;;;;;4967158;28;90058;-40
2022/06/03 13:18:12;;;;;;;5.65;3.75;;;21.30;68.70;;;;;;4958800;28;89272;-35
2022/06/03 13:20:42;;;;;;;4.28;3.85;;;21.60;69.50;;;;;;4957958;28;89382;-37
2022/06/03 13:23:29;;;;;;;5.03;4.60;;;21.60;67.70;;;;;;4958537;28;89441;-35
2022/06/03 13:26:15;;;;;;;5.43;4.90;;;21.70;66.30;;;;;;4956945;28;90295;-35
2022/06/03 13:28:45;;;;;;;9.40;5.22;;;21.70;73.20;;;;;;4957344;28;89754;-38
2022/06/03 13:31:41;;;;;;;4.25;3.92;;;21.50;68.80;;;;;;4957469;28;88880;-38
2022/06/03 13:34:10;;;;;;;6.07;4.43;;;21.70;67.30;;;;;;4957529;28;88973;-35
2022/06/03 13:36:52;;;;;;;4.82;3.90;;;21.30;63.00;;;;;;4957009;28;89981;-37
2022/06/03 13:39:24;;;;;;;4.30;3.90;;;21.30;64.70;;;;;;4957236;28;89579;-36
2022/06/03 13:45:08;;;;;;;3.75;3.55;;;21.60;73.10;;;;;;4957702;28;88724;-35
2022/06/03 13:47:49;;;;;;;4.57;3.92;;;21.50;68.60;;;;;;4957288;28;90510;-37
2022/06/03 13:50:14;;;;;;;3.28;2.97;;;21.40;65.40;;;;;;4957646;28;91452;-35
2022/06/03 13:52:48;;;;;;;3.70;3.35;;;21.40;69.40;;;;;;4957538;28;89933;-36
2022/06/03 13:55:32;;;;;;;4.20;3.80;;;21.50;69.50;;;;;;4957337;28;88857;-36
2022/06/03 13:58:23;;;;;;;4.00;3.70;;;21.60;68.20;;;;;;4955643;28;90210;-34
2022/06/03 14:00:48;;;;;;;3.25;3.05;;;21.50;63.60;;;;;;4955985;28;90928;-36
2022/06/03 14:03:30;;;;;;;4.80;3.30;;;21.60;69.20;;;;;;4958134;28;90374;-38
2022/06/03 14:06:20;;;;;;;5.13;3.78;;;21.70;68.00;;;;;;4957013;28;89491;-35
2022/06/03 14:08:55;;;;;;;3.53;3.28;;;21.50;66.70;;;;;;4976698;28;91224;-35
2022/06/03 14:11:28;;;;;;;4.65;3.55;;;21.50;75.70;;;;;;4977809;28;89093;-39
2022/06/03 14:14:06;;;;;;;5.82;3.13;;;21.60;63.70;;;;;;4956163;28;89652;-35
2022/06/03 14:16:35;;;;;;;4.22;3.92;;;21.60;69.30;;;;;;4945376;28;88752;-39
2022/06/03 14:19:09;;;;;;;4.85;3.45;;;21.70;65.50;;;;;;4957417;28;90157;-35
2022/06/03 14:21:38;;;;;;;5.93;2.95;;;21.50;64.20;;;;;;4957246;28;90056;-38
2022/06/03 14:24:24;;;;;;;10.15;3.72;;;21.30;65.10;;;;;;4957014;28;90508;-36
2022/06/03 14:27:00;;;;;;;3.40;3.10;;;21.40;66.40;;;;;;4947956;28;90152;-37
2022/06/03 14:29:37;;;;;;;5.75;3.45;;;21.50;67.40;;;;;;4977375;28;89826;-38